createdAt,value
2022-09-23T00:00:46.329Z,8.55
2022-09-23T00:03:13.716Z,8.30
2022-09-23T00:05:40.187Z,8.75
2022-09-23T00:08:08.428Z,8.10
2022-09-23T00:10:37.966Z,7.88
2022-09-23T00:13:05.836Z,7.80
2022-09-23T00:15:37.155Z,8.25
2022-09-23T00:18:05.251Z,7.45
2022-09-23T00:20:36.245Z,8.70
2022-09-23T00:23:02.976Z,7.82
2022-09-23T00:25:32.073Z,8.38
2022-09-23T00:27:58.990Z,8.77
2022-09-23T00:30:25.601Z,8.73
2022-09-23T00:32:53.134Z,7.63
2022-09-23T00:35:20.123Z,8.48
2022-09-23T00:37:46.580Z,8.25
2022-09-23T00:40:14.074Z,8.43
2022-09-23T00:42:49.399Z,7.68
2022-09-23T00:45:16.805Z,8.27
2022-09-23T00:47:52.523Z,8.15
2022-09-23T00:50:31.004Z,7.97
2022-09-23T00:53:00.336Z,7.90
2022-09-23T00:55:30.701Z,8.45
2022-09-23T00:58:00.232Z,8.50
2022-09-23T01:00:26.848Z,8.10
2022-09-23T01:02:53.321Z,8.57
2022-09-23T01:05:21.534Z,8.18
2022-09-23T01:07:48.230Z,8.43
2022-09-23T01:10:16.847Z,8.07
2022-09-23T01:12:52.091Z,7.75
2022-09-23T01:15:38.791Z,7.57
2022-09-23T01:18:43.522Z,7.60
2022-09-23T01:21:17.991Z,7.47
2022-09-23T01:24:08.121Z,7.22
2022-09-23T01:26:56.566Z,7.15
2022-09-23T01:29:23.760Z,6.85
2022-09-23T01:32:11.003Z,7.10
2022-09-23T01:35:13.063Z,8.27
2022-09-23T01:38:11.447Z,7.75
2022-09-23T01:40:45.083Z,7.75
2022-09-23T01:43:31.080Z,7.38
2022-09-23T01:46:00.345Z,8.35
2022-09-23T01:48:40.217Z,8.00
2022-09-23T01:51:14.781Z,7.70
2022-09-23T01:53:49.532Z,7.82
2022-09-23T01:56:22.693Z,7.13
2022-09-23T01:59:01.507Z,7.63
2022-09-23T02:01:40.295Z,8.20
2022-09-23T02:04:17.630Z,7.38
2022-09-23T02:06:48.471Z,7.93
2022-09-23T02:09:18.133Z,8.40
2022-09-23T02:11:48.090Z,7.60
2022-09-23T02:14:19.417Z,7.43
2022-09-23T02:16:52.071Z,6.70
2022-09-23T02:19:29.077Z,7.68
2022-09-23T02:22:24.376Z,8.57
2022-09-23T02:24:51.021Z,8.43
2022-09-23T02:28:06.230Z,8.10
2022-09-23T02:30:44.720Z,7.70
2022-09-23T02:33:20.377Z,7.43
2022-09-23T02:35:55.468Z,7.88
2022-09-23T02:38:34.747Z,7.85
2022-09-23T02:41:10.389Z,7.88
2022-09-23T02:43:46.432Z,8.65
2022-09-23T02:46:13.271Z,8.10
2022-09-23T02:48:49.196Z,8.05
2022-09-23T02:51:15.863Z,7.60
2022-09-23T02:53:43.247Z,8.35
2022-09-23T02:56:19.017Z,6.50
2022-09-23T02:58:46.983Z,7.43
2022-09-23T03:01:39.446Z,7.78
2022-09-23T03:04:35.432Z,6.88
2022-09-23T03:07:18.512Z,7.70
2022-09-23T03:09:52.690Z,6.90
2022-09-23T03:12:35.925Z,7.63
2022-09-23T03:15:14.302Z,8.23
2022-09-23T03:17:52.784Z,7.47
2022-09-23T03:20:35.535Z,7.60
2022-09-23T03:23:08.104Z,7.70
2022-09-23T03:25:38.186Z,7.32
2022-09-23T03:28:06.057Z,7.70
2022-09-23T03:30:35.570Z,7.88
2022-09-23T03:33:06.009Z,7.55
2022-09-23T03:35:58.678Z,8.05
2022-09-23T03:38:30.237Z,6.68
2022-09-23T03:41:00.396Z,6.88
2022-09-23T03:43:26.795Z,6.93
2022-09-23T03:45:54.556Z,7.70
2022-09-23T03:48:22.261Z,6.40
2022-09-23T03:50:48.942Z,7.50
2022-09-23T03:53:15.370Z,7.20
2022-09-23T03:55:41.826Z,7.55
2022-09-23T03:58:08.321Z,7.70
2022-09-23T04:00:36.301Z,7.50
2022-09-23T04:03:02.839Z,7.75
2022-09-23T04:05:29.234Z,8.20
2022-09-23T04:07:55.735Z,7.93
2022-09-23T04:10:22.698Z,7.95
2022-09-23T04:12:49.106Z,7.20
2022-09-23T04:15:16.899Z,6.90
2022-09-23T04:17:43.286Z,6.78
2022-09-23T04:20:10.014Z,5.85
2022-09-23T04:22:38.607Z,6.80
2022-09-23T04:25:05.431Z,6.10
2022-09-23T04:27:36.899Z,6.18
2022-09-23T04:30:05.108Z,7.10
2022-09-23T04:32:31.729Z,7.03
2022-09-23T04:34:58.255Z,5.57
2022-09-23T04:37:24.644Z,6.68
2022-09-23T04:39:51.097Z,6.75
2022-09-23T04:42:17.573Z,6.57
2022-09-23T04:44:46.091Z,6.20
2022-09-23T04:47:12.611Z,7.22
2022-09-23T04:49:39.071Z,6.30
2022-09-23T04:52:05.747Z,5.65
2022-09-23T04:54:32.916Z,7.22
2022-09-23T04:56:59.341Z,5.47
2022-09-23T04:59:25.782Z,6.10
2022-09-23T05:01:54.379Z,7.30
2022-09-23T05:04:20.826Z,6.95
2022-09-23T05:06:47.405Z,6.15
2022-09-23T05:09:17.642Z,6.75
2022-09-23T05:11:45.382Z,7.25
2022-09-23T05:14:12.140Z,6.85
2022-09-23T05:16:38.613Z,6.90
2022-09-23T05:19:05.694Z,6.82
2022-09-23T05:21:32.328Z,6.82
2022-09-23T05:24:00.795Z,6.57
2022-09-23T05:26:29.468Z,6.97
2022-09-23T05:28:59.693Z,7.53
2022-09-23T05:31:29.183Z,7.88
2022-09-23T05:33:58.626Z,6.55
2022-09-23T05:36:26.713Z,6.47
2022-09-23T05:38:53.637Z,7.10
2022-09-23T05:41:23.120Z,7.93
2022-09-23T05:43:51.845Z,7.63
2022-09-23T05:46:21.030Z,7.75
2022-09-23T05:48:47.713Z,7.55
2022-09-23T05:51:22.302Z,7.93
2022-09-23T05:53:51.222Z,6.57
2022-09-23T05:56:19.630Z,7.78
2022-09-23T05:58:58.292Z,7.55
2022-09-23T06:01:27.666Z,7.68
2022-09-23T06:03:55.951Z,8.32
2022-09-23T06:06:42.268Z,7.55
2022-09-23T06:09:13.325Z,7.55
2022-09-23T06:11:39.769Z,8.50
2022-09-23T06:14:06.357Z,8.52
2022-09-23T06:16:35.479Z,8.15
2022-09-23T06:19:05.843Z,7.43
2022-09-23T06:21:34.775Z,8.68
2022-09-23T06:24:01.736Z,7.60
2022-09-23T06:26:33.881Z,8.07
2022-09-23T06:29:02.522Z,7.93
2022-09-23T06:31:29.735Z,8.65
2022-09-23T06:34:08.397Z,9.40
2022-09-23T06:36:43.226Z,9.93
2022-09-23T06:39:10.120Z,9.40
2022-09-23T06:41:36.756Z,8.68
2022-09-23T06:44:03.323Z,9.68
2022-09-23T06:46:31.841Z,8.55
2022-09-23T06:48:58.621Z,9.50
2022-09-23T06:51:25.158Z,8.95
2022-09-23T06:53:51.636Z,7.53
2022-09-23T06:56:19.895Z,6.95
2022-09-23T06:58:46.837Z,7.65
2022-09-23T07:01:16.231Z,8.27
2022-09-23T07:03:43.769Z,7.65
2022-09-23T07:06:10.183Z,8.52
2022-09-23T07:08:36.714Z,5.28
2022-09-23T07:11:06.342Z,5.35
2022-09-23T07:13:33.500Z,5.05
2022-09-23T07:16:02.359Z,5.40
2022-09-23T07:18:36.755Z,4.35
2022-09-23T07:21:17.868Z,4.90
2022-09-23T07:23:50.083Z,4.85
2022-09-23T07:26:18.002Z,4.43
2022-09-23T07:28:44.439Z,5.80
2022-09-23T07:31:14.429Z,4.38
2022-09-23T07:33:44.196Z,5.43
2022-09-23T07:36:14.501Z,5.15
2022-09-23T07:38:45.212Z,5.35
2022-09-23T07:41:15.237Z,4.65
2022-09-23T07:43:41.751Z,4.38
2022-09-23T07:46:11.584Z,4.53
2022-09-23T07:48:38.492Z,4.88
2022-09-23T07:51:20.308Z,4.88
2022-09-23T07:53:49.162Z,5.28
2022-09-23T07:56:17.303Z,4.30
2022-09-23T07:58:43.765Z,4.25
2022-09-23T08:01:12.050Z,3.90
2022-09-23T08:03:39.545Z,5.30
2022-09-23T08:06:13.212Z,3.92
2022-09-23T08:08:43.833Z,3.72
2022-09-23T08:11:13.174Z,3.63
2022-09-23T08:13:39.848Z,3.50
2022-09-23T08:16:06.682Z,3.22
2022-09-23T08:18:33.931Z,4.20
2022-09-23T08:21:00.351Z,3.58
2022-09-23T08:23:27.688Z,3.30
2022-09-23T08:26:00.854Z,3.35
2022-09-23T08:28:27.826Z,3.22
2022-09-23T08:30:54.652Z,3.25
2022-09-23T08:33:23.499Z,3.42
2022-09-23T08:35:50.512Z,3.35
2022-09-23T08:38:17.064Z,4.10
2022-09-23T08:40:47.376Z,3.70
2022-09-23T08:43:28.945Z,3.60
2022-09-23T08:45:59.582Z,3.65
2022-09-23T08:48:30.546Z,3.70
2022-09-23T08:51:05.265Z,3.47
2022-09-23T08:53:37.977Z,3.58
2022-09-23T08:56:15.871Z,4.22
2022-09-23T08:59:01.014Z,4.32
2022-09-23T09:01:41.339Z,3.22
2022-09-23T09:04:17.135Z,3.40
2022-09-23T09:06:53.887Z,3.22
2022-09-23T09:09:33.175Z,3.45
2022-09-23T09:12:17.493Z,3.63
2022-09-23T09:15:03.216Z,3.75
2022-09-23T09:17:48.826Z,3.55
2022-09-23T09:20:16.760Z,3.58
2022-09-23T09:22:52.893Z,3.58
2022-09-23T09:25:24.365Z,3.05
2022-09-23T09:27:51.833Z,3.08
2022-09-23T09:30:19.414Z,3.38
2022-09-23T09:32:56.902Z,3.15
2022-09-23T09:35:35.017Z,3.00
2022-09-23T09:38:01.843Z,2.60
2022-09-23T09:40:28.376Z,2.33
2022-09-23T09:42:54.878Z,2.50
2022-09-23T09:46:01.428Z,2.40
2022-09-23T09:48:41.240Z,2.38
2022-09-23T09:51:21.530Z,2.53
2022-09-23T09:53:51.902Z,2.17
2022-09-23T09:56:22.954Z,2.45
2022-09-23T09:58:55.098Z,1.80
2022-09-23T10:01:33.245Z,1.95
2022-09-23T10:04:23.752Z,2.22
2022-09-23T10:07:12.893Z,1.95
2022-09-23T10:09:47.242Z,2.55
2022-09-23T10:12:18.591Z,2.30
2022-09-23T10:14:50.483Z,1.83
2022-09-23T10:17:23.261Z,2.00
2022-09-23T10:20:10.167Z,1.50
2022-09-23T10:22:42.778Z,1.70
2022-09-23T10:25:21.047Z,1.80
2022-09-23T10:27:47.467Z,1.80
2022-09-23T10:30:23.839Z,2.10
2022-09-23T10:32:53.264Z,2.03
2022-09-23T10:35:22.604Z,1.67
2022-09-23T10:37:59.593Z,1.85
2022-09-23T10:40:56.769Z,1.65
2022-09-23T10:43:48.749Z,1.52
2022-09-23T10:46:38.652Z,1.50
2022-09-23T10:49:19.620Z,1.73
2022-09-23T10:52:09.705Z,2.00
2022-09-23T10:55:04.792Z,1.75
2022-09-23T11:00:29.353Z,1.58
2022-09-23T11:03:24.893Z,1.95
2022-09-23T11:09:02.076Z,1.15
2022-09-23T11:11:41.358Z,1.80
2022-09-23T11:14:15.793Z,1.67
2022-09-23T11:17:15.021Z,1.45
2022-09-23T11:20:09.658Z,1.48
2022-09-23T11:23:07.116Z,1.23
2022-09-23T11:25:47.453Z,2.38
2022-09-23T11:29:07.254Z,1.65
2022-09-23T11:31:59.644Z,1.70
2022-09-23T11:34:52.632Z,1.40
2022-09-23T11:37:26.275Z,1.33
2022-09-23T11:40:03.410Z,1.33
2022-09-23T11:42:38.372Z,2.50
2022-09-23T11:45:16.378Z,1.75
2022-09-23T11:47:49.940Z,1.50
2022-09-23T11:50:29.574Z,1.35
2022-09-23T11:53:15.723Z,1.92
2022-09-23T11:56:02.000Z,1.42
2022-09-23T11:58:33.305Z,1.52
2022-09-23T12:01:07.071Z,1.42
2022-09-23T12:03:46.720Z,1.42
2022-09-23T12:06:18.519Z,1.77
2022-09-23T12:08:44.989Z,1.58
2022-09-23T12:11:42.563Z,1.58
2022-09-23T12:14:29.371Z,1.30
2022-09-23T12:17:14.786Z,1.65
2022-09-23T12:20:20.823Z,1.42
2022-09-23T12:23:13.212Z,1.20
2022-09-23T12:25:46.707Z,1.48
2022-09-23T12:28:19.052Z,1.40
2022-09-23T12:30:47.431Z,1.38
2022-09-23T12:33:26.142Z,1.33
2022-09-23T12:35:54.108Z,1.40
2022-09-23T12:38:26.938Z,1.55
2022-09-23T12:40:55.822Z,1.30
2022-09-23T12:43:30.075Z,1.38
2022-09-23T12:46:17.492Z,1.80
2022-09-23T12:48:57.734Z,1.38
2022-09-23T12:51:26.670Z,1.50
2022-09-23T12:54:05.300Z,1.40
2022-09-23T12:56:37.606Z,1.30
2022-09-23T12:59:16.414Z,1.30
2022-09-23T13:01:44.249Z,1.30
2022-09-23T13:04:52.504Z,1.30
2022-09-23T13:07:25.342Z,1.20
2022-09-23T13:09:55.468Z,1.40
2022-09-23T13:12:31.057Z,1.15
2022-09-23T13:15:03.378Z,1.50
2022-09-23T13:17:37.295Z,1.50
2022-09-23T13:20:34.831Z,1.73
2022-09-23T13:23:22.690Z,1.40
2022-09-23T13:25:52.030Z,1.40
2022-09-23T13:28:31.811Z,1.50
2022-09-23T13:30:58.981Z,1.23
2022-09-23T13:33:38.947Z,1.55
2022-09-23T13:36:12.043Z,1.50
2022-09-23T13:38:38.495Z,1.15
2022-09-23T13:41:11.219Z,1.50
2022-09-23T13:43:44.738Z,1.30
2022-09-23T13:46:19.966Z,1.30
2022-09-23T13:48:48.367Z,1.60
2022-09-23T13:51:27.212Z,1.50
2022-09-23T13:53:55.310Z,1.40
2022-09-23T13:56:22.670Z,1.10
2022-09-23T13:58:49.114Z,1.45
2022-09-23T14:01:34.057Z,1.50
2022-09-23T14:04:02.379Z,1.27
2022-09-23T14:06:37.897Z,1.23
2022-09-23T14:09:06.329Z,1.60
2022-09-23T14:11:35.388Z,1.40
2022-09-23T14:14:07.658Z,1.35
2022-09-23T14:16:40.195Z,1.30
2022-09-23T14:19:11.374Z,1.42
2022-09-23T14:21:39.848Z,1.60
2022-09-23T14:24:23.820Z,1.30
2022-09-23T14:26:56.423Z,1.30
2022-09-23T14:29:30.552Z,1.33
2022-09-23T14:32:00.639Z,1.58
2022-09-23T14:34:45.484Z,1.40
2022-09-23T14:37:36.686Z,1.40
2022-09-23T14:40:19.650Z,1.23
2022-09-23T14:42:52.137Z,1.15
2022-09-23T14:45:25.331Z,1.30
2022-09-23T14:47:57.991Z,1.10
2022-09-23T14:50:45.977Z,1.08
2022-09-23T14:53:24.598Z,1.35
2022-09-23T14:55:53.851Z,1.20
2022-09-23T14:58:25.149Z,1.60
2022-09-23T15:00:54.264Z,1.23
2022-09-23T15:03:21.582Z,1.50
2022-09-23T15:05:49.087Z,1.20
2022-09-23T15:08:21.396Z,1.40
2022-09-23T15:10:48.162Z,1.30
2022-09-23T15:13:18.255Z,1.40
2022-09-23T15:15:45.141Z,1.27
2022-09-23T15:18:22.252Z,1.20
2022-09-23T15:20:52.205Z,1.50
2022-09-23T15:23:40.983Z,1.13
2022-09-23T15:26:18.020Z,1.55
2022-09-23T15:28:45.672Z,1.50
2022-09-23T15:31:20.240Z,1.50
2022-09-23T15:33:47.959Z,1.30
2022-09-23T15:36:21.354Z,1.40
2022-09-23T15:38:47.988Z,1.40
2022-09-23T15:41:15.278Z,1.20
2022-09-23T15:43:42.128Z,1.13
2022-09-23T15:46:14.574Z,1.50
2022-09-23T15:48:44.565Z,1.40
2022-09-23T15:51:14.753Z,1.10
2022-09-23T15:53:41.213Z,1.30
2022-09-23T15:56:07.756Z,1.35
2022-09-23T15:58:34.177Z,1.30
2022-09-23T16:01:00.875Z,1.40
2022-09-23T16:03:30.450Z,1.35
2022-09-23T16:06:00.555Z,1.10
2022-09-23T16:08:28.198Z,1.55
2022-09-23T16:10:55.079Z,1.23
2022-09-23T16:13:21.844Z,1.48
2022-09-23T16:15:48.257Z,1.30
2022-09-23T16:18:14.776Z,1.50
2022-09-23T16:20:44.644Z,1.60
2022-09-23T16:23:34.312Z,1.52
2022-09-23T16:26:07.575Z,1.55
2022-09-23T16:28:34.522Z,1.50
2022-09-23T16:31:00.941Z,1.50
2022-09-23T16:33:27.745Z,1.35
2022-09-23T16:35:55.180Z,1.45
2022-09-23T16:38:21.621Z,1.20
2022-09-23T16:40:48.234Z,1.38
2022-09-23T16:43:14.792Z,1.20
2022-09-23T16:46:00.386Z,1.50
2022-09-23T16:48:28.613Z,1.70
2022-09-23T16:50:57.163Z,1.48
2022-09-23T16:53:28.494Z,1.83
2022-09-23T16:56:01.089Z,1.75
2022-09-23T16:58:27.522Z,1.52
2022-09-23T17:01:16.455Z,2.03
2022-09-23T17:03:43.015Z,1.60
2022-09-23T17:06:28.217Z,1.63
2022-09-23T17:08:54.912Z,1.70
2022-09-23T17:11:22.674Z,1.33
2022-09-23T17:13:57.116Z,1.80
2022-09-23T17:16:36.680Z,1.77
2022-09-23T17:19:14.940Z,2.00
2022-09-23T17:21:43.621Z,1.50
2022-09-23T17:24:12.842Z,2.00
2022-09-23T17:26:39.241Z,1.70
2022-09-23T17:29:19.347Z,2.00
2022-09-23T17:31:47.124Z,2.00
2022-09-23T17:34:20.093Z,1.60
2022-09-23T17:36:55.904Z,1.80
2022-09-23T17:39:22.489Z,1.67
2022-09-23T17:41:48.922Z,1.75
2022-09-23T17:44:17.849Z,3.17
2022-09-23T17:46:49.205Z,1.77
2022-09-23T17:49:15.670Z,1.83
2022-09-23T17:51:42.683Z,2.30
2022-09-23T17:54:10.092Z,2.30
2022-09-23T17:56:36.545Z,2.17
2022-09-23T17:59:03.195Z,2.20
2022-09-23T18:01:29.974Z,2.13
2022-09-23T18:04:01.106Z,2.45
2022-09-23T18:06:31.763Z,2.60
2022-09-23T18:09:01.552Z,2.78
2022-09-23T18:11:30.087Z,2.45
2022-09-23T18:14:01.770Z,2.78
2022-09-23T18:16:36.949Z,2.40
2022-09-23T18:19:04.355Z,2.92
2022-09-23T18:21:33.098Z,2.75
2022-09-23T18:24:28.051Z,2.90
2022-09-23T18:26:49.318Z,3.50
2022-09-23T18:29:16.507Z,2.85
2022-09-23T18:31:45.582Z,3.38
2022-09-23T18:34:14.203Z,3.33
2022-09-23T18:36:40.686Z,3.08
2022-09-23T18:39:11.877Z,3.03
2022-09-23T18:41:38.989Z,3.42
2022-09-23T18:44:06.834Z,3.45
2022-09-23T18:46:34.411Z,3.35
2022-09-23T18:49:19.406Z,4.07
2022-09-23T18:51:56.963Z,3.33
2022-09-23T18:54:25.388Z,3.70
2022-09-23T18:56:55.036Z,4.35
2022-09-23T18:59:25.929Z,3.63
2022-09-23T19:01:54.938Z,4.00
2022-09-23T19:04:24.473Z,3.72
2022-09-23T19:06:51.075Z,3.83
2022-09-23T19:09:18.267Z,4.22
2022-09-23T19:11:45.228Z,4.25
2022-09-23T19:14:12.728Z,4.80
2022-09-23T19:16:40.565Z,5.30
2022-09-23T19:19:07.730Z,9.02
2022-09-23T19:21:34.996Z,14.13
2022-09-23T19:24:07.094Z,17.60
2022-09-23T19:26:43.161Z,19.83
2022-09-23T19:29:16.737Z,18.10
2022-09-23T19:31:43.835Z,16.17
2022-09-23T19:34:18.525Z,12.93
2022-09-23T19:36:47.016Z,11.23
2022-09-23T19:39:19.331Z,10.45
2022-09-23T19:41:48.954Z,10.57
2022-09-23T19:44:16.440Z,11.00
2022-09-23T19:46:45.434Z,9.90
2022-09-23T19:49:12.280Z,9.98
2022-09-23T19:51:39.031Z,7.95
2022-09-23T19:54:07.271Z,7.25
2022-09-23T19:56:34.585Z,6.43
2022-09-23T19:59:03.236Z,6.38
2022-09-23T20:01:32.082Z,5.75
2022-09-23T20:04:00.188Z,5.78
2022-09-23T20:06:31.438Z,7.60
2022-09-23T20:09:01.996Z,9.77
2022-09-23T20:11:29.152Z,11.18
2022-09-23T20:14:09.529Z,12.38
2022-09-23T20:16:37.264Z,13.55
2022-09-23T20:19:05.501Z,12.65
2022-09-23T20:21:33.444Z,13.45
2022-09-23T20:24:00.098Z,14.02
2022-09-23T20:26:45.078Z,15.60
2022-09-23T20:29:11.557Z,13.00
2022-09-23T20:31:40.250Z,11.55
2022-09-23T20:34:08.144Z,10.30
2022-09-23T20:36:36.132Z,10.85
2022-09-23T20:39:08.689Z,10.32
2022-09-23T20:41:37.832Z,10.00
2022-09-23T20:44:07.721Z,10.60
2022-09-23T20:46:34.771Z,11.05
2022-09-23T20:49:01.922Z,12.10
2022-09-23T20:51:28.721Z,11.70
2022-09-23T20:53:55.229Z,11.38
2022-09-23T20:56:22.148Z,11.50
2022-09-23T20:58:50.434Z,13.13
2022-09-23T21:01:17.383Z,12.50
2022-09-23T21:03:46.424Z,12.77
2022-09-23T21:06:18.007Z,12.43
2022-09-23T21:11:13.697Z,12.80
2022-09-23T21:13:46.117Z,13.63
2022-09-23T21:16:13.159Z,13.52
2022-09-23T21:18:39.643Z,13.65
2022-09-23T21:21:06.472Z,12.73
2022-09-23T21:23:34.850Z,13.40
2022-09-23T21:26:06.613Z,10.32
2022-09-23T21:28:38.549Z,10.23
2022-09-23T21:31:08.401Z,10.75
2022-09-23T21:33:37.657Z,11.57
2022-09-23T21:36:06.019Z,9.93
2022-09-23T21:38:39.030Z,10.75
2022-09-23T21:41:07.986Z,11.55
2022-09-23T21:43:37.287Z,10.55
2022-09-23T21:46:05.775Z,10.75
2022-09-23T21:48:34.308Z,9.85
2022-09-23T21:51:05.579Z,8.77
2022-09-23T21:53:33.587Z,8.82
2022-09-23T21:56:06.202Z,7.93
2022-09-23T21:58:34.437Z,8.02
2022-09-23T22:01:02.185Z,8.00
2022-09-23T22:03:28.811Z,7.95
2022-09-23T22:06:21.325Z,7.78
2022-09-23T22:08:49.984Z,7.57
2022-09-23T22:11:37.793Z,8.55
2022-09-23T22:14:07.225Z,7.88
2022-09-23T22:16:35.947Z,8.35
2022-09-23T22:19:06.787Z,8.65
2022-09-23T22:21:38.206Z,7.75
2022-09-23T22:24:07.434Z,8.55
2022-09-23T22:26:36.746Z,8.25
2022-09-23T22:29:23.514Z,8.10
2022-09-23T22:32:08.577Z,8.05
2022-09-23T22:34:49.450Z,8.23
2022-09-23T22:37:20.108Z,7.93
2022-09-23T22:39:47.013Z,7.72
2022-09-23T22:42:14.501Z,8.00
2022-09-23T22:44:40.988Z,8.25
2022-09-23T22:47:09.174Z,8.75
2022-09-23T22:49:35.599Z,8.02
2022-09-23T22:52:04.009Z,8.00
2022-09-23T22:54:33.982Z,8.43
2022-09-23T22:57:03.924Z,8.88
2022-09-23T22:59:30.368Z,8.65
2022-09-23T23:01:58.860Z,8.27
2022-09-23T23:04:25.723Z,8.63
2022-09-23T23:06:52.365Z,7.82
2022-09-23T23:09:19.233Z,8.38
2022-09-23T23:11:47.051Z,8.43
2022-09-23T23:14:16.188Z,7.90
2022-09-23T23:16:43.705Z,8.32
2022-09-23T23:19:13.361Z,7.90
2022-09-23T23:21:43.271Z,8.18
2022-09-23T23:24:21.747Z,8.18
2022-09-23T23:26:48.828Z,8.45
2022-09-23T23:29:17.688Z,8.80
2022-09-23T23:31:44.838Z,8.30
2022-09-23T23:34:16.870Z,8.23
2022-09-23T23:36:44.375Z,8.40
2022-09-23T23:39:11.744Z,8.23
2022-09-23T23:41:39.395Z,8.80
2022-09-23T23:44:06.417Z,8.50
2022-09-23T23:46:33.127Z,9.00
2022-09-23T23:49:00.346Z,8.02
2022-09-23T23:51:27.292Z,8.88
2022-09-23T23:53:54.771Z,8.90
2022-09-23T23:56:23.301Z,8.90
2022-09-23T23:58:57.933Z,8.40
